sensor_id;sensor_type;location;lat;lon;timestamp;pressure;altitude;pressure_sealevel;temperature;humidity
71621;BME280;59471;42.254;23.102;2023-11-19T00:00:33;95903.56;;;3.43;71.27
71621;BME280;59471;42.254;23.102;2023-11-19T00:02:58;95915.25;;;3.37;71.63
71621;BME280;59471;42.254;23.102;2023-11-19T00:05:24;95904.75;;;3.29;70.87
71621;BME280;59471;42.254;23.102;2023-11-19T00:07:50;95912.00;;;3.35;71.27
71621;BME280;59471;42.254;23.102;2023-11-19T00:10:16;95909.81;;;3.40;70.97
71621;BME280;59471;42.254;23.102;2023-11-19T00:12:45;95914.16;;;3.30;71.59
71621;BME280;59471;42.254;23.102;2023-11-19T00:15:13;95928.81;;;3.20;72.43
71621;BME280;59471;42.254;23.102;2023-11-19T00:17:43;95925.56;;;3.28;72.04
71621;BME280;59471;42.254;23.102;2023-11-19T00:20:20;95929.19;;;3.46;71.39
71621;BME280;59471;42.254;23.102;2023-11-19T00:22:47;95931.91;;;3.44;71.02
71621;BME280;59471;42.254;23.102;2023-11-19T00:25:20;95930.25;;;3.43;70.99
71621;BME280;59471;42.254;23.102;2023-11-19T00:27:47;95936.25;;;3.34;71.64
71621;BME280;59471;42.254;23.102;2023-11-19T00:30:13;95933.47;;;3.26;71.73
71621;BME280;59471;42.254;23.102;2023-11-19T00:32:41;95932.97;;;3.32;71.83
71621;BME280;59471;42.254;23.102;2023-11-19T00:35:07;95945.22;;;3.30;72.00
71621;BME280;59471;42.254;23.102;2023-11-19T00:37:33;95943.56;;;3.29;71.50
71621;BME280;59471;42.254;23.102;2023-11-19T00:39:59;95959.09;;;3.29;71.18
71621;BME280;59471;42.254;23.102;2023-11-19T00:42:25;95956.41;;;3.40;70.65
71621;BME280;59471;42.254;23.102;2023-11-19T00:44:51;95953.41;;;3.35;71.95
71621;BME280;59471;42.254;23.102;2023-11-19T00:47:17;95955.06;;;3.46;70.92
71621;BME280;59471;42.254;23.102;2023-11-19T00:49:46;95954.53;;;3.42;71.39
71621;BME280;59471;42.254;23.102;2023-11-19T00:52:14;95953.72;;;3.42;70.70
71621;BME280;59471;42.254;23.102;2023-11-19T00:54:40;95953.53;;;3.34;71.56
71621;BME280;59471;42.254;23.102;2023-11-19T00:57:06;95955.56;;;3.30;71.51
71621;BME280;59471;42.254;23.102;2023-11-19T00:59:31;95957.50;;;3.38;71.11
71621;BME280;59471;42.254;23.102;2023-11-19T01:01:58;95966.78;;;3.40;71.01
71621;BME280;59471;42.254;23.102;2023-11-19T01:04:28;95956.16;;;3.43;71.98
71621;BME280;59471;42.254;23.102;2023-11-19T01:07:04;95961.19;;;3.35;71.89
71621;BME280;59471;42.254;23.102;2023-11-19T01:09:33;95971.66;;;3.34;71.16
71621;BME280;59471;42.254;23.102;2023-11-19T01:12:02;95974.41;;;3.42;71.31
71621;BME280;59471;42.254;23.102;2023-11-19T01:14:28;95974.03;;;3.46;72.00
71621;BME280;59471;42.254;23.102;2023-11-19T01:16:54;95975.94;;;3.44;71.71
71621;BME280;59471;42.254;23.102;2023-11-19T01:19:21;95969.53;;;3.48;70.84
71621;BME280;59471;42.254;23.102;2023-11-19T01:21:48;95960.25;;;3.46;71.50
71621;BME280;59471;42.254;23.102;2023-11-19T01:24:14;95963.81;;;3.45;71.58
71621;BME280;59471;42.254;23.102;2023-11-19T01:26:41;95955.19;;;3.35;72.35
71621;BME280;59471;42.254;23.102;2023-11-19T01:29:13;95961.50;;;3.52;71.54
71621;BME280;59471;42.254;23.102;2023-11-19T01:31:46;95963.00;;;3.44;72.03
71621;BME280;59471;42.254;23.102;2023-11-19T01:34:16;95963.41;;;3.49;71.85
71621;BME280;59471;42.254;23.102;2023-11-19T01:36:42;95971.16;;;3.49;72.37
71621;BME280;59471;42.254;23.102;2023-11-19T01:39:07;95978.78;;;3.41;72.44
71621;BME280;59471;42.254;23.102;2023-11-19T01:41:36;95992.25;;;3.35;72.80
71621;BME280;59471;42.254;23.102;2023-11-19T01:44:02;95984.22;;;3.38;72.29
71621;BME280;59471;42.254;23.102;2023-11-19T01:46:29;95971.69;;;3.43;72.86
71621;BME280;59471;42.254;23.102;2023-11-19T01:48:57;95983.19;;;3.51;72.51
71621;BME280;59471;42.254;23.102;2023-11-19T01:51:25;95980.41;;;3.42;72.90
71621;BME280;59471;42.254;23.102;2023-11-19T01:53:50;95984.13;;;3.49;71.15
71621;BME280;59471;42.254;23.102;2023-11-19T01:56:17;95979.28;;;3.66;70.47
71621;BME280;59471;42.254;23.102;2023-11-19T01:58:44;95988.75;;;3.46;71.31
71621;BME280;59471;42.254;23.102;2023-11-19T02:01:11;95981.53;;;3.49;72.21
71621;BME280;59471;42.254;23.102;2023-11-19T02:03:37;95985.59;;;3.42;72.80
71621;BME280;59471;42.254;23.102;2023-11-19T02:06:04;95992.56;;;3.21;72.96
71621;BME280;59471;42.254;23.102;2023-11-19T02:08:30;95988.91;;;3.54;71.57
71621;BME280;59471;42.254;23.102;2023-11-19T02:10:55;95973.22;;;3.56;71.12
71621;BME280;59471;42.254;23.102;2023-11-19T02:13:26;95951.72;;;3.65;70.69
71621;BME280;59471;42.254;23.102;2023-11-19T02:15:52;95952.78;;;3.53;72.08
71621;BME280;59471;42.254;23.102;2023-11-19T02:18:28;95950.31;;;3.41;71.25
71621;BME280;59471;42.254;23.102;2023-11-19T02:20:55;95960.22;;;3.36;72.16
71621;BME280;59471;42.254;23.102;2023-11-19T02:23:26;95961.94;;;3.26;72.36
71621;BME280;59471;42.254;23.102;2023-11-19T02:28:42;95960.75;;;3.30;72.24
71621;BME280;59471;42.254;23.102;2023-11-19T02:31:08;95972.13;;;3.18;73.25
71621;BME280;59471;42.254;23.102;2023-11-19T02:33:35;95962.91;;;3.25;72.19
71621;BME280;59471;42.254;23.102;2023-11-19T02:36:03;95971.28;;;3.38;71.79
71621;BME280;59471;42.254;23.102;2023-11-19T02:38:33;95973.16;;;3.36;71.81
71621;BME280;59471;42.254;23.102;2023-11-19T02:41:01;95962.91;;;3.25;71.05
71621;BME280;59471;42.254;23.102;2023-11-19T02:43:34;95956.38;;;3.31;71.66
71621;BME280;59471;42.254;23.102;2023-11-19T02:46:04;95957.28;;;3.20;72.36
71621;BME280;59471;42.254;23.102;2023-11-19T02:48:37;95962.41;;;3.31;71.33
71621;BME280;59471;42.254;23.102;2023-11-19T02:51:03;95952.38;;;3.17;71.80
71621;BME280;59471;42.254;23.102;2023-11-19T02:53:30;95951.66;;;3.15;72.13
71621;BME280;59471;42.254;23.102;2023-11-19T02:55:56;95959.88;;;3.20;73.42
71621;BME280;59471;42.254;23.102;2023-11-19T02:58:27;95954.16;;;3.16;71.38
71621;BME280;59471;42.254;23.102;2023-11-19T03:00:54;95956.47;;;3.19;71.74
71621;BME280;59471;42.254;23.102;2023-11-19T03:03:24;95953.94;;;3.29;71.48
71621;BME280;59471;42.254;23.102;2023-11-19T03:05:55;95960.13;;;3.17;71.65
71621;BME280;59471;42.254;23.102;2023-11-19T03:08:21;95971.59;;;3.24;72.60
71621;BME280;59471;42.254;23.102;2023-11-19T03:10:47;95961.72;;;3.08;72.08
71621;BME280;59471;42.254;23.102;2023-11-19T03:13:14;95978.31;;;3.06;72.33
71621;BME280;59471;42.254;23.102;2023-11-19T03:15:40;95974.91;;;3.05;72.09
71621;BME280;59471;42.254;23.102;2023-11-19T03:18:07;95979.97;;;3.07;71.73
71621;BME280;59471;42.254;23.102;2023-11-19T03:20:33;95974.03;;;3.16;71.63
71621;BME280;59471;42.254;23.102;2023-11-19T03:22:58;95965.56;;;3.14;71.68
71621;BME280;59471;42.254;23.102;2023-11-19T03:25:25;95973.47;;;3.12;72.16
71621;BME280;59471;42.254;23.102;2023-11-19T03:27:59;95970.28;;;3.09;72.34
71621;BME280;59471;42.254;23.102;2023-11-19T03:30:26;95977.44;;;2.95;72.27
71621;BME280;59471;42.254;23.102;2023-11-19T03:32:52;95975.50;;;2.88;72.57
71621;BME280;59471;42.254;23.102;2023-11-19T03:35:17;95959.78;;;3.00;72.74
71621;BME280;59471;42.254;23.102;2023-11-19T03:37:43;95971.06;;;2.99;72.81
71621;BME280;59471;42.254;23.102;2023-11-19T03:40:09;95981.28;;;3.01;71.82
71621;BME280;59471;42.254;23.102;2023-11-19T03:42:35;95964.84;;;2.81;72.86
71621;BME280;59471;42.254;23.102;2023-11-19T03:45:01;95971.34;;;2.96;72.50
71621;BME280;59471;42.254;23.102;2023-11-19T03:47:29;95980.16;;;2.94;72.44
71621;BME280;59471;42.254;23.102;2023-11-19T03:49:55;95989.97;;;2.90;73.04
71621;BME280;59471;42.254;23.102;2023-11-19T03:52:20;95990.72;;;2.81;73.30
71621;BME280;59471;42.254;23.102;2023-11-19T03:54:46;95998.22;;;2.84;74.18
71621;BME280;59471;42.254;23.102;2023-11-19T03:57:14;96003.88;;;2.78;73.41
71621;BME280;59471;42.254;23.102;2023-11-19T03:59:41;96011.41;;;2.81;73.84
71621;BME280;59471;42.254;23.102;2023-11-19T04:02:06;96009.75;;;2.80;73.92
71621;BME280;59471;42.254;23.102;2023-11-19T04:04:32;96022.63;;;2.91;73.63
71621;BME280;59471;42.254;23.102;2023-11-19T04:06:58;96022.13;;;2.97;73.50
71621;BME280;59471;42.254;23.102;2023-11-19T04:09:26;96031.16;;;3.03;73.17
71621;BME280;59471;42.254;23.102;2023-11-19T04:11:51;96016.94;;;2.97;74.07
71621;BME280;59471;42.254;23.102;2023-11-19T04:14:17;96015.44;;;2.95;73.17
71621;BME280;59471;42.254;23.102;2023-11-19T04:16:44;96021.25;;;2.87;73.71
71621;BME280;59471;42.254;23.102;2023-11-19T04:19:10;96026.66;;;2.84;73.92
71621;BME280;59471;42.254;23.102;2023-11-19T04:21:37;96021.03;;;2.79;73.26
71621;BME280;59471;42.254;23.102;2023-11-19T04:24:06;96031.59;;;2.87;72.58
71621;BME280;59471;42.254;23.102;2023-11-19T04:26:32;96036.50;;;2.90;72.54
71621;BME280;59471;42.254;23.102;2023-11-19T04:28:57;96029.94;;;2.86;73.76
71621;BME280;59471;42.254;23.102;2023-11-19T04:31:28;96029.69;;;2.89;73.29
71621;BME280;59471;42.254;23.102;2023-11-19T04:33:56;96034.84;;;2.89;74.19
71621;BME280;59471;42.254;23.102;2023-11-19T04:36:22;96033.22;;;2.88;72.80
71621;BME280;59471;42.254;23.102;2023-11-19T04:38:49;96044.94;;;2.92;72.43
71621;BME280;59471;42.254;23.102;2023-11-19T04:41:15;96039.53;;;2.74;72.92
71621;BME280;59471;42.254;23.102;2023-11-19T04:43:40;96049.88;;;2.95;72.96
71621;BME280;59471;42.254;23.102;2023-11-19T04:46:06;96058.53;;;2.85;72.74
71621;BME280;59471;42.254;23.102;2023-11-19T04:48:32;96068.81;;;2.96;72.55
71621;BME280;59471;42.254;23.102;2023-11-19T04:50:57;96064.19;;;2.99;72.28
71621;BME280;59471;42.254;23.102;2023-11-19T04:53:23;96062.13;;;2.93;73.28
71621;BME280;59471;42.254;23.102;2023-11-19T04:55:48;96058.34;;;2.97;71.73
71621;BME280;59471;42.254;23.102;2023-11-19T04:58:14;96057.34;;;3.10;71.55
71621;BME280;59471;42.254;23.102;2023-11-19T05:00:39;96043.69;;;3.08;71.72
71621;BME280;59471;42.254;23.102;2023-11-19T05:03:05;96048.75;;;2.88;73.40
71621;BME280;59471;42.254;23.102;2023-11-19T05:05:31;96036.06;;;2.85;72.79
71621;BME280;59471;42.254;23.102;2023-11-19T05:07:57;96044.69;;;2.95;72.72
71621;BME280;59471;42.254;23.102;2023-11-19T05:10:22;96055.00;;;3.07;72.39
71621;BME280;59471;42.254;23.102;2023-11-19T05:12:50;96061.09;;;3.06;72.54
71621;BME280;59471;42.254;23.102;2023-11-19T05:15:17;96068.31;;;3.02;73.15
71621;BME280;59471;42.254;23.102;2023-11-19T05:17:42;96075.25;;;3.01;72.57
71621;BME280;59471;42.254;23.102;2023-11-19T05:20:08;96080.28;;;2.82;73.88
71621;BME280;59471;42.254;23.102;2023-11-19T05:22:42;96082.38;;;2.88;72.24
71621;BME280;59471;42.254;23.102;2023-11-19T05:25:08;96078.34;;;2.95;73.59
71621;BME280;59471;42.254;23.102;2023-11-19T05:27:36;96078.66;;;3.02;71.83
71621;BME280;59471;42.254;23.102;2023-11-19T05:30:04;96076.50;;;2.86;72.86
71621;BME280;59471;42.254;23.102;2023-11-19T05:32:33;96086.59;;;2.89;72.71
71621;BME280;59471;42.254;23.102;2023-11-19T05:34:58;96076.25;;;2.89;72.78
71621;BME280;59471;42.254;23.102;2023-11-19T05:37:24;96075.31;;;2.90;72.74
71621;BME280;59471;42.254;23.102;2023-11-19T05:39:50;96082.69;;;2.95;72.68
71621;BME280;59471;42.254;23.102;2023-11-19T05:42:16;96077.41;;;2.96;72.91
71621;BME280;59471;42.254;23.102;2023-11-19T05:44:42;96077.19;;;2.88;72.95
71621;BME280;59471;42.254;23.102;2023-11-19T05:47:08;96079.03;;;2.97;72.21
71621;BME280;59471;42.254;23.102;2023-11-19T05:49:33;96072.47;;;2.93;72.60
71621;BME280;59471;42.254;23.102;2023-11-19T05:51:59;96082.84;;;2.93;73.96
71621;BME280;59471;42.254;23.102;2023-11-19T05:54:27;96083.06;;;2.90;73.39
71621;BME280;59471;42.254;23.102;2023-11-19T05:56:52;96096.00;;;2.90;73.04
71621;BME280;59471;42.254;23.102;2023-11-19T05:59:19;96078.34;;;2.95;72.55
71621;BME280;59471;42.254;23.102;2023-11-19T06:01:45;96078.53;;;3.04;72.74
71621;BME280;59471;42.254;23.102;2023-11-19T06:04:12;96083.28;;;3.19;71.64
71621;BME280;59471;42.254;23.102;2023-11-19T06:06:37;96085.97;;;3.18;71.86
71621;BME280;59471;42.254;23.102;2023-11-19T06:09:04;96082.66;;;3.06;71.57
71621;BME280;59471;42.254;23.102;2023-11-19T06:11:32;96092.41;;;3.02;72.62
71621;BME280;59471;42.254;23.102;2023-11-19T06:14:01;96104.91;;;2.97;72.18
71621;BME280;59471;42.254;23.102;2023-11-19T06:16:28;96112.84;;;3.06;72.28
71621;BME280;59471;42.254;23.102;2023-11-19T06:18:53;96111.47;;;3.01;72.18
71621;BME280;59471;42.254;23.102;2023-11-19T06:21:19;96115.25;;;2.97;73.06
71621;BME280;59471;42.254;23.102;2023-11-19T06:23:45;96116.00;;;2.88;72.62
71621;BME280;59471;42.254;23.102;2023-11-19T06:26:10;96115.63;;;2.93;73.08
71621;BME280;59471;42.254;23.102;2023-11-19T06:28:36;96114.78;;;3.04;73.13
71621;BME280;59471;42.254;23.102;2023-11-19T06:31:03;96120.44;;;2.97;72.30
71621;BME280;59471;42.254;23.102;2023-11-19T06:33:29;96100.72;;;2.85;73.83
71621;BME280;59471;42.254;23.102;2023-11-19T06:35:54;96111.22;;;3.05;72.55
71621;BME280;59471;42.254;23.102;2023-11-19T06:38:20;96115.00;;;3.00;71.94
71621;BME280;59471;42.254;23.102;2023-11-19T06:40:48;96105.22;;;3.04;71.76
71621;BME280;59471;42.254;23.102;2023-11-19T06:43:14;96114.53;;;3.07;71.09
71621;BME280;59471;42.254;23.102;2023-11-19T06:45:40;96127.72;;;3.04;71.12
71621;BME280;59471;42.254;23.102;2023-11-19T06:48:06;96117.63;;;2.89;71.51
71621;BME280;59471;42.254;23.102;2023-11-19T06:50:32;96111.97;;;2.95;72.07
71621;BME280;59471;42.254;23.102;2023-11-19T06:52:59;96116.22;;;2.96;72.37
71621;BME280;59471;42.254;23.102;2023-11-19T06:55:24;96123.47;;;3.02;71.93
71621;BME280;59471;42.254;23.102;2023-11-19T06:57:50;96124.88;;;3.07;71.30
71621;BME280;59471;42.254;23.102;2023-11-19T07:00:16;96119.38;;;3.00;71.93
71621;BME280;59471;42.254;23.102;2023-11-19T07:02:43;96119.22;;;3.01;71.16
71621;BME280;59471;42.254;23.102;2023-11-19T07:05:09;96128.19;;;2.97;71.65
71621;BME280;59471;42.254;23.102;2023-11-19T07:07:35;96128.72;;;2.80;71.77
71621;BME280;59471;42.254;23.102;2023-11-19T07:10:01;96134.47;;;2.84;72.79
71621;BME280;59471;42.254;23.102;2023-11-19T07:12:27;96125.78;;;2.85;71.90
71621;BME280;59471;42.254;23.102;2023-11-19T07:14:54;96126.03;;;3.02;72.19
71621;BME280;59471;42.254;23.102;2023-11-19T07:17:20;96135.97;;;2.97;71.81
71621;BME280;59471;42.254;23.102;2023-11-19T07:19:55;96154.09;;;2.86;70.65
71621;BME280;59471;42.254;23.102;2023-11-19T07:22:25;96146.41;;;2.96;69.76
71621;BME280;59471;42.254;23.102;2023-11-19T07:24:51;96139.22;;;2.99;71.00
71621;BME280;59471;42.254;23.102;2023-11-19T07:27:18;96138.56;;;2.86;71.61
71621;BME280;59471;42.254;23.102;2023-11-19T07:29:44;96128.94;;;2.88;70.38
71621;BME280;59471;42.254;23.102;2023-11-19T07:32:10;96136.03;;;3.07;70.22
71621;BME280;59471;42.254;23.102;2023-11-19T07:34:36;96137.47;;;3.00;70.15
71621;BME280;59471;42.254;23.102;2023-11-19T07:37:02;96148.69;;;2.89;70.99
71621;BME280;59471;42.254;23.102;2023-11-19T07:39:28;96149.22;;;2.72;70.91
71621;BME280;59471;42.254;23.102;2023-11-19T07:41:54;96162.38;;;2.69;70.77
71621;BME280;59471;42.254;23.102;2023-11-19T07:44:20;96170.81;;;2.71;71.50
71621;BME280;59471;42.254;23.102;2023-11-19T07:46:46;96174.13;;;2.73;71.31
71621;BME280;59471;42.254;23.102;2023-11-19T07:49:13;96172.25;;;2.75;71.69
71621;BME280;59471;42.254;23.102;2023-11-19T07:51:39;96177.88;;;2.69;71.30
71621;BME280;59471;42.254;23.102;2023-11-19T07:54:05;96176.94;;;2.81;71.01
71621;BME280;59471;42.254;23.102;2023-11-19T07:56:34;96179.72;;;2.89;70.25
71621;BME280;59471;42.254;23.102;2023-11-19T07:59:01;96163.28;;;2.79;72.19
71621;BME280;59471;42.254;23.102;2023-11-19T08:01:27;96146.31;;;2.97;70.97
71621;BME280;59471;42.254;23.102;2023-11-19T08:03:53;96153.84;;;2.89;71.04
71621;BME280;59471;42.254;23.102;2023-11-19T08:06:19;96155.75;;;2.87;69.85
71621;BME280;59471;42.254;23.102;2023-11-19T08:08:45;96163.44;;;2.66;70.99
71621;BME280;59471;42.254;23.102;2023-11-19T08:11:10;96154.56;;;2.80;71.15
71621;BME280;59471;42.254;23.102;2023-11-19T08:13:36;96151.06;;;2.81;70.74
71621;BME280;59471;42.254;23.102;2023-11-19T08:16:01;96158.44;;;2.86;71.49
71621;BME280;59471;42.254;23.102;2023-11-19T08:18:27;96160.22;;;2.85;71.63
71621;BME280;59471;42.254;23.102;2023-11-19T08:20:53;96172.91;;;2.88;70.67
71621;BME280;59471;42.254;23.102;2023-11-19T08:23:21;96176.22;;;2.79;71.22
71621;BME280;59471;42.254;23.102;2023-11-19T08:25:48;96189.25;;;2.89;70.53
71621;BME280;59471;42.254;23.102;2023-11-19T08:28:14;96195.72;;;2.83;71.43
71621;BME280;59471;42.254;23.102;2023-11-19T08:30:40;96193.59;;;2.88;71.11
71621;BME280;59471;42.254;23.102;2023-11-19T08:33:06;96190.06;;;2.89;70.72
71621;BME280;59471;42.254;23.102;2023-11-19T08:35:32;96182.44;;;2.88;70.56
71621;BME280;59471;42.254;23.102;2023-11-19T08:37:58;96183.84;;;2.92;70.94
71621;BME280;59471;42.254;23.102;2023-11-19T08:40:24;96182.28;;;3.00;69.93
71621;BME280;59471;42.254;23.102;2023-11-19T08:42:51;96185.56;;;3.02;70.17
71621;BME280;59471;42.254;23.102;2023-11-19T08:45:17;96183.91;;;3.01;71.25
71621;BME280;59471;42.254;23.102;2023-11-19T08:47:42;96183.44;;;3.08;71.44
71621;BME280;59471;42.254;23.102;2023-11-19T08:50:08;96193.94;;;3.27;70.46
71621;BME280;59471;42.254;23.102;2023-11-19T08:52:34;96200.53;;;3.31;69.75
71621;BME280;59471;42.254;23.102;2023-11-19T08:55:00;96206.03;;;3.38;68.77
71621;BME280;59471;42.254;23.102;2023-11-19T08:57:25;96202.19;;;3.21;69.94
71621;BME280;59471;42.254;23.102;2023-11-19T08:59:51;96209.94;;;3.32;69.15
71621;BME280;59471;42.254;23.102;2023-11-19T09:02:16;96209.44;;;3.38;68.56
71621;BME280;59471;42.254;23.102;2023-11-19T09:04:43;96198.88;;;3.30;69.52
71621;BME280;59471;42.254;23.102;2023-11-19T09:07:09;96194.34;;;3.43;69.15
71621;BME280;59471;42.254;23.102;2023-11-19T09:09:35;96193.19;;;3.36;68.61
71621;BME280;59471;42.254;23.102;2023-11-19T09:12:02;96192.22;;;3.48;68.98
71621;BME280;59471;42.254;23.102;2023-11-19T09:14:31;96193.34;;;3.56;68.26
71621;BME280;59471;42.254;23.102;2023-11-19T09:16:57;96200.28;;;3.34;68.78
71621;BME280;59471;42.254;23.102;2023-11-19T09:19:23;96192.97;;;3.39;68.10
71621;BME280;59471;42.254;23.102;2023-11-19T09:21:49;96192.53;;;3.55;68.23
71621;BME280;59471;42.254;23.102;2023-11-19T09:24:15;96191.91;;;3.42;67.99
71621;BME280;59471;42.254;23.102;2023-11-19T09:26:41;96190.25;;;3.41;68.48
71621;BME280;59471;42.254;23.102;2023-11-19T09:29:09;96184.91;;;3.54;69.04
71621;BME280;59471;42.254;23.102;2023-11-19T09:31:35;96187.09;;;3.58;68.29
71621;BME280;59471;42.254;23.102;2023-11-19T09:34:01;96187.41;;;3.65;67.72
71621;BME280;59471;42.254;23.102;2023-11-19T09:36:26;96179.66;;;3.65;67.69
71621;BME280;59471;42.254;23.102;2023-11-19T09:38:52;96192.03;;;3.82;66.48
71621;BME280;59471;42.254;23.102;2023-11-19T09:41:17;96186.47;;;3.87;65.52
71621;BME280;59471;42.254;23.102;2023-11-19T09:43:44;96170.44;;;3.72;66.65
71621;BME280;59471;42.254;23.102;2023-11-19T09:46:12;96172.84;;;3.64;68.08
71621;BME280;59471;42.254;23.102;2023-11-19T09:48:39;96158.56;;;3.69;67.92
71621;BME280;59471;42.254;23.102;2023-11-19T09:51:11;96153.75;;;3.86;69.11
71621;BME280;59471;42.254;23.102;2023-11-19T09:53:37;96146.47;;;4.01;66.27
71621;BME280;59471;42.254;23.102;2023-11-19T09:56:05;96143.13;;;4.20;66.77
71621;BME280;59471;42.254;23.102;2023-11-19T09:58:32;96131.22;;;4.07;66.85
71621;BME280;59471;42.254;23.102;2023-11-19T10:00:58;96124.72;;;4.23;65.17
71621;BME280;59471;42.254;23.102;2023-11-19T10:03:31;96134.50;;;4.19;63.66
71621;BME280;59471;42.254;23.102;2023-11-19T10:06:03;96126.06;;;4.17;65.60
71621;BME280;59471;42.254;23.102;2023-11-19T10:08:29;96131.25;;;4.17;65.83
71621;BME280;59471;42.254;23.102;2023-11-19T10:10:55;96120.88;;;4.17;65.25
71621;BME280;59471;42.254;23.102;2023-11-19T10:13:26;96116.25;;;4.21;66.35
71621;BME280;59471;42.254;23.102;2023-11-19T10:15:52;96116.63;;;4.16;65.86
71621;BME280;59471;42.254;23.102;2023-11-19T10:18:18;96119.53;;;4.23;65.12
71621;BME280;59471;42.254;23.102;2023-11-19T10:20:45;96108.16;;;4.45;63.73
71621;BME280;59471;42.254;23.102;2023-11-19T10:23:10;96110.31;;;4.39;63.51
71621;BME280;59471;42.254;23.102;2023-11-19T10:25:37;96104.34;;;4.49;63.12
71621;BME280;59471;42.254;23.102;2023-11-19T10:28:02;96102.56;;;4.59;65.24
71621;BME280;59471;42.254;23.102;2023-11-19T10:30:29;96104.38;;;4.68;63.46
71621;BME280;59471;42.254;23.102;2023-11-19T10:33:11;96097.94;;;4.82;64.87
71621;BME280;59471;42.254;23.102;2023-11-19T10:35:56;96087.59;;;5.01;62.90
71621;BME280;59471;42.254;23.102;2023-11-19T10:38:23;96084.31;;;5.09;62.06
71621;BME280;59471;42.254;23.102;2023-11-19T10:40:53;96084.69;;;4.95;61.21
71621;BME280;59471;42.254;23.102;2023-11-19T10:43:23;96085.53;;;5.15;60.14
71621;BME280;59471;42.254;23.102;2023-11-19T10:45:49;96080.63;;;5.11;61.92
71621;BME280;59471;42.254;23.102;2023-11-19T10:48:15;96083.22;;;5.21;62.30
71621;BME280;59471;42.254;23.102;2023-11-19T10:50:42;96084.16;;;5.30;62.25
71621;BME280;59471;42.254;23.102;2023-11-19T10:53:11;96095.88;;;5.44;60.20
71621;BME280;59471;42.254;23.102;2023-11-19T10:55:41;96088.53;;;5.10;59.65
71621;BME280;59471;42.254;23.102;2023-11-19T10:58:08;96079.53;;;5.14;62.03
71621;BME280;59471;42.254;23.102;2023-11-19T11:00:50;96077.03;;;5.22;59.16
71621;BME280;59471;42.254;23.102;2023-11-19T11:03:18;96072.38;;;5.35;60.29
71621;BME280;59471;42.254;23.102;2023-11-19T11:05:49;96059.91;;;5.58;60.43
71621;BME280;59471;42.254;23.102;2023-11-19T11:08:16;96060.00;;;5.67;59.30
71621;BME280;59471;42.254;23.102;2023-11-19T11:10:53;96064.38;;;5.66;58.64
71621;BME280;59471;42.254;23.102;2023-11-19T11:13:22;96061.38;;;5.61;58.58
71621;BME280;59471;42.254;23.102;2023-11-19T11:15:49;96051.00;;;5.61;59.94
71621;BME280;59471;42.254;23.102;2023-11-19T11:18:16;96036.00;;;5.55;58.86
71621;BME280;59471;42.254;23.102;2023-11-19T11:20:45;96031.38;;;5.39;58.98
71621;BME280;59471;42.254;23.102;2023-11-19T11:29:14;96031.63;;;5.55;58.09
71621;BME280;59471;42.254;23.102;2023-11-19T11:32:08;96034.84;;;5.67;57.84
71621;BME280;59471;42.254;23.102;2023-11-19T11:38:04;96024.75;;;5.54;57.65
71621;BME280;59471;42.254;23.102;2023-11-19T11:40:32;96017.91;;;5.63;57.02
71621;BME280;59471;42.254;23.102;2023-11-19T11:42:58;96024.91;;;5.90;57.33
71621;BME280;59471;42.254;23.102;2023-11-19T11:45:38;96047.00;;;6.14;56.69
71621;BME280;59471;42.254;23.102;2023-11-19T11:48:15;96032.00;;;5.98;57.07
71621;BME280;59471;42.254;23.102;2023-11-19T11:50:53;96021.03;;;6.04;55.57
71621;BME280;59471;42.254;23.102;2023-11-19T11:53:22;96020.34;;;6.02;56.65
71621;BME280;59471;42.254;23.102;2023-11-19T11:58:25;96010.47;;;6.33;57.26
71621;BME280;59471;42.254;23.102;2023-11-19T12:00:59;96009.44;;;6.26;56.31
71621;BME280;59471;42.254;23.102;2023-11-19T12:03:28;96002.31;;;6.28;56.79
71621;BME280;59471;42.254;23.102;2023-11-19T12:05:55;96007.06;;;6.33;55.61
71621;BME280;59471;42.254;23.102;2023-11-19T12:08:26;96010.41;;;6.43;56.94
71621;BME280;59471;42.254;23.102;2023-11-19T12:10:57;95994.94;;;6.41;55.58
71621;BME280;59471;42.254;23.102;2023-11-19T12:13:24;95994.72;;;6.35;54.63
71621;BME280;59471;42.254;23.102;2023-11-19T12:18:32;95992.47;;;6.22;56.19
71621;BME280;59471;42.254;23.102;2023-11-19T12:21:00;95986.03;;;6.44;55.62
71621;BME280;59471;42.254;23.102;2023-11-19T12:23:29;95990.66;;;6.50;56.57
71621;BME280;59471;42.254;23.102;2023-11-19T12:25:56;95983.06;;;6.39;54.82
71621;BME280;59471;42.254;23.102;2023-11-19T12:28:22;95982.91;;;6.40;55.17
71621;BME280;59471;42.254;23.102;2023-11-19T12:30:49;95981.88;;;6.51;56.23
71621;BME280;59471;42.254;23.102;2023-11-19T12:33:16;95980.25;;;6.50;54.81
71621;BME280;59471;42.254;23.102;2023-11-19T12:35:44;95969.25;;;6.56;55.46
71621;BME280;59471;42.254;23.102;2023-11-19T12:38:23;95977.19;;;6.55;54.86
71621;BME280;59471;42.254;23.102;2023-11-19T12:41:06;95973.97;;;6.79;53.59
71621;BME280;59471;42.254;23.102;2023-11-19T12:43:33;95968.66;;;6.62;54.20
71621;BME280;59471;42.254;23.102;2023-11-19T12:46:16;95960.97;;;6.79;54.41
71621;BME280;59471;42.254;23.102;2023-11-19T12:48:47;95947.78;;;6.80;54.78
71621;BME280;59471;42.254;23.102;2023-11-19T12:51:16;95947.53;;;6.65;53.27
71621;BME280;59471;42.254;23.102;2023-11-19T12:53:50;95939.13;;;6.71;53.24
71621;BME280;59471;42.254;23.102;2023-11-19T12:56:20;95945.56;;;6.67;53.36
71621;BME280;59471;42.254;23.102;2023-11-19T12:58:47;95954.41;;;6.74;53.52
71621;BME280;59471;42.254;23.102;2023-11-19T13:01:16;95955.75;;;6.79;52.58
71621;BME280;59471;42.254;23.102;2023-11-19T13:03:44;95947.34;;;6.85;52.99
71621;BME280;59471;42.254;23.102;2023-11-19T13:06:14;95937.34;;;6.98;52.02
71621;BME280;59471;42.254;23.102;2023-11-19T13:11:09;95916.47;;;6.90;53.18
71621;BME280;59471;42.254;23.102;2023-11-19T13:13:54;95915.25;;;7.02;54.31
71621;BME280;59471;42.254;23.102;2023-11-19T13:16:21;95920.50;;;7.10;52.79
71621;BME280;59471;42.254;23.102;2023-11-19T13:18:47;95929.59;;;7.32;54.42
71621;BME280;59471;42.254;23.102;2023-11-19T13:21:13;95923.00;;;7.20;51.99